Observations for BARCELONA AIRPORT, Spain (LEBL)

LEBL 230530Z 33009KT 9999 FEW030 10/07 Q1024 NOSIG  
LEBL 230500Z 34013KT 9999 FEW030 10/07 Q1024 NOSIG  
LEBL 230430Z 33011KT 9999 FEW030 10/07 Q1024 NOSIG  
LEBL 230400Z 34005KT 9999 FEW030 11/07 Q1024 NOSIG  
LEBL 230330Z 33006KT 9999 FEW030 11/07 Q1024 NOSIG  
LEBL 230300Z 36006KT 9999 FEW030 12/07 Q1024 NOSIG  
LEBL 230230Z 34009KT 9999 FEW030 11/07 Q1024 NOSIG  
LEBL 230200Z 33007KT 290V350 9999 FEW030 11/07 Q1024 NOSIG  
LEBL 230130Z 34007KT 9999 FEW030 12/08 Q1024 NOSIG  
LEBL 230100Z 30010KT 9999 FEW030 12/08 Q1023 NOSIG  
LEBL 230030Z 31008KT CAVOK 12/08 Q1023 NOSIG
LEBL 230000Z 30007KT CAVOK 11/08 Q1023 NOSIG
LEBL 222330Z 34006KT CAVOK 11/07 Q1024 NOSIG
LEBL 222300Z 36004KT CAVOK 12/08 Q1024 NOSIG
LEBL 222230Z VRB02KT CAVOK 12/09 Q1024 NOSIG
LEBL 222200Z 03006KT CAVOK 14/11 Q1024 NOSIG
LEBL 222130Z 05007KT CAVOK 13/10 Q1023 NOSIG
LEBL 222100Z 05005KT CAVOK 13/09 Q1023 NOSIG
LEBL 222030Z 06005KT CAVOK 14/09 Q1023 NOSIG
LEBL 222000Z 07008KT CAVOK 13/09 Q1022 NOSIG
LEBL 221930Z 06007KT 010V090 CAVOK 16/07 Q1022 NOSIG
LEBL 221900Z 33008G18KT 290V070 CAVOK 16/07 Q1022 NOSIG 
LEBL 221830Z 35005KT CAVOK 17/07 Q1021 NOSIG
LEBL 221800Z 36005KT 310V070 CAVOK 17/07 Q1021 NOSIG
LEBL 221730Z 33002KT CAVOK 18/07 Q1021 NOSIG
LEBL 221700Z 33006KT 310V010 CAVOK 18/07 Q1021 NOSIG
LEBL 221630Z 32010KT CAVOK 18/07 Q1021 NOSIG
LEBL 221600Z 32011KT CAVOK 19/07 Q1021 NOSIG
LEBL 221530Z 31011G23KT 290V010 CAVOK 19/07 Q1020 NOSIG 
LEBL 221500Z 33009KT 290V350 CAVOK 20/08 Q1020 NOSIG
LEBL 221430Z 33010G23KT 280V360 CAVOK 19/09 Q1020 NOSIG 
LEBL 221400Z 32009KT 240V040 CAVOK 18/09 Q1020 NOSIG
LEBL 221330Z 01005G18KT CAVOK 18/09 Q1020 NOSIG 
LEBL 221300Z 18005KT 110V240 CAVOK 18/09 Q1020 NOSIG
LEBL 221230Z 21005KT 140V280 CAVOK 18/09 Q1021 NOSIG
LEBL 221200Z 19004KT 120V290 CAVOK 18/08 Q1021 NOSIG
LEBL 221130Z 19006KT 130V220 CAVOK 16/09 Q1022 NOSIG
LEBL 221100Z 33010KT 290V030 CAVOK 17/08 Q1022 NOSIG
LEBL 221030Z 33011KT CAVOK 17/08 Q1022 NOSIG
LEBL 221000Z 34010G20KT 290V040 9999 FEW025 16/08 Q1022 NOSIG   
LEBL 220930Z 34008G19KT 300V040 9999 FEW025 14/08 Q1022 NOSIG   
LEBL 220900Z 34011G22KT 310V030 9999 FEW025 13/08 Q1022 NOSIG   
LEBL 220830Z 32011KT 290V350 9999 FEW025 13/08 Q1022 NOSIG  
LEBL 220800Z 33015KT 9999 FEW030 12/08 Q1022 NOSIG  
LEBL 220730Z 33019KT 9999 FEW030 12/07 Q1021 NOSIG  
LEBL 220700Z 33017KT 9999 FEW040 13/07 Q1021 NOSIG  
LEBL 220630Z 33007KT CAVOK 14/08 Q1021 NOSIG
LEBL 220600Z 33006KT 300V020 CAVOK 14/08 Q1021 NOSIG
LEBL 220530Z 36003KT 310V060 CAVOK 14/08 Q1021 NOSIG
LEBL 220500Z 33006KT CAVOK 14/07 Q1021 NOSIG